Time;durP1;ratioP1;P1;durP2;ratioP2;P2;SDS_P1;SDS_P2;PMS_P1;PMS_P2;Temp;Humidity;BMP_temperature;BMP_pressure;BME280_temperature;BME280_humidity;BME280_pressure;Samples;Min_cycle;Max_cycle;Signal;HPM_P1;HPM_P2
2023/03/16 00:02:54;;;;;;;49.20;17.40;;;;;;;0.22;73.49;100389.56;131101;1253;107373;-79
2023/03/16 00:06:00;;;;;;;41.70;18.10;;;;;;;0.28;73.44;100388.14;131294;1254;107498;-77
2023/03/16 00:09:06;;;;;;;47.30;19.20;;;;;;;0.34;73.47;100391.68;131162;1253;107525;-78
2023/03/16 00:12:14;;;;;;;40.00;17.90;;;;;;;0.39;73.14;100396.88;131080;1250;106535;-78
2023/03/16 00:15:20;;;;;;;43.60;19.40;;;;;;;0.40;73.21;100399.74;131085;1252;107528;-80
2023/03/16 00:18:27;;;;;;;45.50;21.30;;;;;;;0.37;73.06;100401.30;131358;1261;107604;-79
2023/03/16 00:21:34;;;;;;;65.30;31.90;;;;;;;0.38;72.96;100405.64;131463;1250;107557;-78
2023/03/16 00:24:41;;;;;;;48.50;22.00;;;;;;;0.40;72.78;100406.77;131323;1253;107961;-78
2023/03/16 00:27:47;;;;;;;40.00;18.30;;;;;;;0.37;72.78;100414.44;131283;1250;107366;-78
2023/03/16 00:30:57;;;;;;;53.50;25.50;;;;;;;0.35;72.96;100416.45;131329;1252;106135;-78
2023/03/16 00:34:03;;;;;;;78.50;40.80;;;;;;;0.35;72.79;100413.86;131148;1250;107369;-79
2023/03/16 00:37:09;;;;;;;64.60;27.20;;;;;;;0.34;72.92;100414.42;131271;1250;107244;-78
2023/03/16 00:40:15;;;;;;;50.00;20.00;;;;;;;0.30;73.23;100412.54;131030;1253;107623;-80
2023/03/16 00:43:21;;;;;;;47.40;20.00;;;;;;;0.28;73.31;100412.14;131273;1252;107571;-78
2023/03/16 00:46:27;;;;;;;49.00;20.10;;;;;;;0.27;73.49;100416.06;131073;1255;107554;-79
2023/03/16 00:49:33;;;;;;;34.80;16.00;;;;;;;0.24;73.85;100415.48;131140;1252;107521;-80
2023/03/16 00:52:39;;;;;;;33.90;15.00;;;;;;;0.25;73.69;100416.71;131057;1252;107565;-81
2023/03/16 00:55:45;;;;;;;33.10;15.10;;;;;;;0.23;73.77;100418.52;131244;1253;107613;-79
2023/03/16 00:58:56;;;;;;;35.60;17.60;;;;;;;0.23;74.14;100419.60;131223;1262;107549;-79
2023/03/16 01:02:02;;;;;;;44.70;18.70;;;;;;;0.22;73.30;100418.98;131336;1252;107636;-78
2023/03/16 01:05:09;;;;;;;56.60;25.90;;;;;;;0.25;73.21;100417.20;131317;1253;107810;-80
2023/03/16 01:08:15;;;;;;;60.20;28.00;;;;;;;0.29;73.00;100416.63;131425;1252;107529;-79
2023/03/16 01:11:22;;;;;;;53.70;25.50;;;;;;;0.31;72.68;100419.70;131348;1252;107554;-80
2023/03/16 01:14:28;;;;;;;47.20;23.40;;;;;;;0.30;72.59;100422.89;131009;1256;107258;-77
2023/03/16 01:17:35;;;;;;;53.50;24.20;;;;;;;0.27;72.50;100423.74;131085;1252;107539;-78
2023/03/16 01:20:49;;;;;;;43.60;23.30;;;;;;;0.25;72.52;100421.77;131051;1261;106938;-77
2023/03/16 01:23:54;;;;;;;30.10;14.70;;;;;;;0.22;72.42;100419.63;131151;1255;107275;-78
2023/03/16 01:27:01;;;;;;;29.50;14.20;;;;;;;0.16;72.08;100421.71;131213;1265;107270;-77
2023/03/16 01:30:11;;;;;;;26.60;14.40;;;;;;;0.11;72.24;100422.88;131194;1253;107494;-78
2023/03/16 01:33:17;;;;;;;26.20;13.40;;;;;;;0.04;71.90;100427.98;131319;1254;107407;-75
2023/03/16 01:36:23;;;;;;;25.00;13.60;;;;;;;-0.13;71.65;100432.70;131368;1253;107547;-78
2023/03/16 01:39:32;;;;;;;26.30;13.70;;;;;;;-0.20;71.95;100433.39;131240;1253;107486;-78
2023/03/16 01:42:46;;;;;;;26.00;14.40;;;;;;;-0.22;71.96;100432.46;131055;1251;107453;-77
2023/03/16 01:46:18;;;;;;;25.90;13.50;;;;;;;-0.28;71.91;100430.69;131203;1254;107254;-77
2023/03/16 01:49:31;;;;;;;29.10;13.80;;;;;;;-0.33;72.01;100435.47;131254;1254;108612;-79
2023/03/16 01:52:39;;;;;;;24.60;13.50;;;;;;;-0.38;71.78;100434.14;131318;1253;107520;-79
2023/03/16 01:55:46;;;;;;;25.30;12.50;;;;;;;-0.38;71.94;100441.83;131205;1254;108243;-79
2023/03/16 01:58:57;;;;;;;24.80;12.70;;;;;;;-0.35;71.54;100443.80;131093;1250;107291;-80
2023/03/16 02:02:03;;;;;;;28.00;12.40;;;;;;;-0.34;71.69;100446.70;131244;1255;107449;-78
2023/03/16 02:05:15;;;;;;;27.50;14.10;;;;;;;-0.29;71.69;100445.61;131172;1252;107417;-79
2023/03/16 02:08:22;;;;;;;31.00;14.20;;;;;;;-0.32;71.19;100445.92;131156;1257;107428;-79
2023/03/16 02:11:28;;;;;;;27.70;14.00;;;;;;;-0.35;71.50;100446.57;131083;1261;107481;-77
2023/03/16 02:14:43;;;;;;;23.30;13.20;;;;;;;-0.33;71.26;100445.97;130874;1253;165116;-78
2023/03/16 02:17:50;;;;;;;27.60;13.80;;;;;;;-0.42;71.04;100443.27;131028;1256;107451;-77
2023/03/16 02:21:05;;;;;;;22.80;12.90;;;;;;;-0.56;70.61;100450.45;131014;1253;107493;-78
2023/03/16 02:24:11;;;;;;;25.60;13.30;;;;;;;-0.69;71.14;100456.17;130978;1257;107572;-79
2023/03/16 02:27:24;;;;;;;32.90;19.90;;;;;;;-0.67;71.55;100457.80;131025;1263;107498;-77
2023/03/16 02:30:30;;;;;;;38.80;19.00;;;;;;;-0.64;71.24;100458.88;131041;1263;107559;-79
2023/03/16 02:33:42;;;;;;;29.70;15.50;;;;;;;-0.68;71.14;100462.04;131053;1253;107182;-79
2023/03/16 02:36:52;;;;;;;23.20;12.80;;;;;;;-0.73;70.95;100467.03;131017;1254;107440;-78
2023/03/16 02:40:02;;;;;;;26.80;13.00;;;;;;;-0.77;71.49;100469.86;131093;1254;107424;-78
2023/03/16 02:43:12;;;;;;;24.70;12.50;;;;;;;-0.82;71.28;100477.91;131076;1254;107458;-79
2023/03/16 02:46:25;;;;;;;25.60;11.80;;;;;;;-0.87;71.21;100480.27;131097;1257;107426;-78
2023/03/16 02:49:36;;;;;;;24.30;11.60;;;;;;;-0.88;71.19;100483.64;131302;1254;107803;-78
2023/03/16 02:52:42;;;;;;;22.20;11.70;;;;;;;-1.00;70.32;100488.23;131312;1256;107385;-78
2023/03/16 02:55:48;;;;;;;22.60;12.30;;;;;;;-1.14;70.71;100492.59;131348;1252;107488;-77
2023/03/16 02:58:56;;;;;;;22.30;12.00;;;;;;;-1.16;70.94;100503.66;131090;1251;107382;-79
2023/03/16 03:02:02;;;;;;;24.20;11.60;;;;;;;-1.16;70.90;100505.95;131171;1262;107424;-79
2023/03/16 03:05:08;;;;;;;23.90;11.90;;;;;;;-1.18;71.01;100510.02;131388;1261;107357;-78
2023/03/16 03:08:15;;;;;;;19.60;11.00;;;;;;;-1.18;70.95;100514.58;131333;1254;107470;-78
2023/03/16 03:11:21;;;;;;;23.90;12.10;;;;;;;-1.21;71.05;100516.07;131260;1253;107526;-78
2023/03/16 03:14:28;;;;;;;27.00;13.30;;;;;;;-1.22;70.96;100521.92;131294;1253;108608;-78
2023/03/16 03:17:33;;;;;;;29.20;15.20;;;;;;;-1.23;71.03;100522.13;131162;1254;107403;-78
2023/03/16 03:20:39;;;;;;;26.20;13.20;;;;;;;-1.23;71.10;100523.19;131074;1252;107450;-78
2023/03/16 03:23:45;;;;;;;24.20;12.90;;;;;;;-1.23;71.14;100520.23;131097;1252;107487;-78
2023/03/16 03:26:52;;;;;;;30.20;13.60;;;;;;;-1.26;71.15;100518.45;131416;1262;107516;-79
2023/03/16 03:29:58;;;;;;;26.90;13.10;;;;;;;-1.28;71.40;100523.77;132423;1257;108673;-77
2023/03/16 03:33:06;;;;;;;25.10;12.20;;;;;;;-1.26;71.56;100524.70;131708;1256;107360;-82
2023/03/16 03:36:12;;;;;;;24.60;13.30;;;;;;;-1.20;71.66;100526.55;131058;1263;107541;-75
2023/03/16 03:39:18;;;;;;;28.70;14.00;;;;;;;-1.16;71.47;100523.89;131049;1263;107454;-75
2023/03/16 03:42:24;;;;;;;26.40;13.50;;;;;;;-1.10;71.25;100528.67;131262;1256;107371;-75
2023/03/16 03:45:31;;;;;;;26.00;12.40;;;;;;;-1.07;71.20;100530.11;131365;1251;107492;-81
2023/03/16 03:48:37;;;;;;;26.90;12.90;;;;;;;-1.05;71.21;100532.48;131367;1251;107486;-73
2023/03/16 03:51:43;;;;;;;34.20;18.00;;;;;;;-1.05;71.09;100534.58;131155;1261;107187;-74
2023/03/16 03:54:53;;;;;;;;;;;;;;;-1.08;71.27;100531.91;131346;1253;107430;-74
2023/03/16 03:57:59;;;;;;;23.00;12.30;;;;;;;-1.07;71.28;100535.90;131136;1254;106479;-75
2023/03/16 04:01:05;;;;;;;21.60;11.50;;;;;;;-1.07;71.24;100537.83;131082;1255;105925;-74
2023/03/16 04:04:12;;;;;;;25.10;12.40;;;;;;;-1.08;71.14;100543.27;131154;1252;107512;-74
2023/03/16 04:07:18;;;;;;;25.50;13.20;;;;;;;-1.09;71.04;100545.07;131227;1265;107492;-75
2023/03/16 04:10:25;;;;;;;25.30;12.20;;;;;;;-1.13;70.71;100546.27;131043;1254;107398;-73
2023/03/16 04:13:31;;;;;;;26.30;12.50;;;;;;;-1.21;70.79;100545.58;131215;1251;107253;-74
2023/03/16 04:16:36;;;;;;;21.80;11.80;;;;;;;-1.27;70.98;100546.91;131135;1254;107417;-74
2023/03/16 04:19:42;;;;;;;24.10;11.90;;;;;;;-1.28;71.01;100551.01;131320;1251;107500;-73
2023/03/16 04:22:57;;;;;;;24.10;11.90;;;;;;;-1.32;70.71;100550.80;131435;1254;107370;-74
2023/03/16 04:26:04;;;;;;;25.30;12.00;;;;;;;-1.36;71.01;100552.23;131240;1254;107425;-75
2023/03/16 04:29:11;;;;;;;22.80;11.80;;;;;;;-1.40;70.75;100550.49;131132;1256;107528;-74
2023/03/16 04:32:17;;;;;;;22.20;11.40;;;;;;;-1.48;70.62;100554.18;131224;1253;107456;-75
2023/03/16 04:35:24;;;;;;;20.90;11.40;;;;;;;-1.56;70.78;100557.83;131046;1261;108104;-74
2023/03/16 04:38:33;;;;;;;22.50;11.20;;;;;;;-1.61;70.52;100562.05;131274;1253;107441;-74
2023/03/16 04:41:39;;;;;;;19.30;10.60;;;;;;;-1.65;70.43;100562.08;131324;1253;107498;-73
2023/03/16 04:44:49;;;;;;;23.60;11.50;;;;;;;-1.67;70.75;100559.89;131336;1255;107450;-74
2023/03/16 04:47:56;;;;;;;22.20;11.50;;;;;;;-1.73;70.72;100566.61;131183;1252;107446;-74
2023/03/16 04:51:03;;;;;;;23.00;12.10;;;;;;;-1.80;70.42;100567.08;131094;1261;107388;-74
2023/03/16 04:54:11;;;;;;;22.60;11.80;;;;;;;-1.84;70.48;100571.64;131374;1254;107425;-73
2023/03/16 04:57:19;;;;;;;23.70;12.50;;;;;;;-1.84;70.51;100575.98;131290;1263;107492;-74
2023/03/16 05:00:29;;;;;;;24.30;11.90;;;;;;;-1.83;70.63;100576.82;131363;1254;106446;-74
2023/03/16 05:03:53;;;;;;;25.70;12.30;;;;;;;-1.83;70.49;100577.66;131234;1254;107821;-75
2023/03/16 05:06:59;;;;;;;24.40;12.00;;;;;;;-1.82;70.71;100577.11;131129;1264;107463;-75
2023/03/16 05:10:10;;;;;;;31.80;15.20;;;;;;;-1.81;70.51;100578.45;131444;1253;107378;-73
2023/03/16 05:13:17;;;;;;;33.10;16.30;;;;;;;-1.79;70.41;100577.34;131226;1251;107882;-74
2023/03/16 05:16:23;;;;;;;39.80;18.50;;;;;;;-1.79;70.28;100577.66;131084;1252;107353;-73
2023/03/16 05:19:30;;;;;;;47.00;21.00;;;;;;;-1.77;70.50;100581.96;131074;1251;107350;-74
2023/03/16 05:22:36;;;;;;;61.30;21.00;;;;;;;-1.75;70.14;100585.03;130975;1263;107394;-72
2023/03/16 05:25:52;;;;;;;71.90;23.80;;;;;;;-1.72;70.64;100584.02;131002;1256;107446;-74
2023/03/16 05:28:59;;;;;;;32.60;14.00;;;;;;;-1.65;70.61;100586.10;131050;1263;107498;-73
2023/03/16 05:32:07;;;;;;;130.10;34.10;;;;;;;-1.54;70.50;100590.19;131177;1263;107473;-73
2023/03/16 05:35:14;;;;;;;137.80;33.60;;;;;;;-1.40;70.75;100587.29;131171;1254;107492;-74
2023/03/16 05:38:20;;;;;;;92.90;26.20;;;;;;;-1.26;70.54;100589.45;130944;1254;107523;-76
2023/03/16 05:41:27;;;;;;;47.50;16.80;;;;;;;-1.16;70.57;100592.34;130949;1253;107372;-74
2023/03/16 05:44:55;;;;;;;91.40;25.40;;;;;;;-1.06;70.77;100593.11;131096;1253;109782;-73
2023/03/16 05:48:14;;;;;;;114.10;28.60;;;;;;;-0.98;70.68;100595.70;130989;1251;106428;-73
2023/03/16 05:51:25;;;;;;;270.70;62.00;;;;;;;-0.88;70.80;100594.02;130923;1254;106510;-73
2023/03/16 05:54:31;;;;;;;335.30;78.70;;;;;;;-0.79;71.07;100597.29;130976;1251;108587;-74
2023/03/16 05:57:37;;;;;;;903.00;291.70;;;;;;;-0.72;71.05;100606.05;131090;1256;107486;-73
2023/03/16 06:00:44;;;;;;;1134.40;414.80;;;;;;;-0.63;71.54;100610.86;130976;1253;107547;-73
2023/03/16 06:04:06;;;;;;;1999.90;779.00;;;;;;;-0.55;71.80;100611.14;130990;1251;107815;-74
2023/03/16 06:07:14;;;;;;;1395.60;572.70;;;;;;;-0.43;72.31;100612.31;131076;1252;107418;-74
2023/03/16 06:10:20;;;;;;;949.70;378.60;;;;;;;-0.30;72.47;100611.20;131278;1263;105765;-73
2023/03/16 06:13:26;;;;;;;569.60;238.90;;;;;;;-0.19;72.63;100611.50;131148;1254;107436;-73
2023/03/16 06:16:32;;;;;;;125.60;56.90;;;;;;;-0.08;72.86;100614.64;131254;1253;107423;-74
2023/03/16 06:19:39;;;;;;;52.60;26.80;;;;;;;0.04;72.90;100616.15;131263;1251;107333;-73
2023/03/16 06:22:46;;;;;;;41.90;20.30;;;;;;;0.19;73.01;100619.05;131036;1264;107822;-74
2023/03/16 06:25:54;;;;;;;42.40;19.80;;;;;;;0.36;73.09;100620.62;131145;1253;107604;-74
2023/03/16 06:29:00;;;;;;;37.70;19.50;;;;;;;0.56;73.11;100621.71;131108;1253;107443;-74
2023/03/16 06:32:06;;;;;;;46.90;23.60;;;;;;;0.74;73.07;100624.44;131057;1254;107445;-74
2023/03/16 06:35:13;;;;;;;47.80;25.20;;;;;;;0.91;73.00;100624.79;131213;1253;105403;-74
2023/03/16 06:38:24;;;;;;;42.50;20.90;;;;;;;1.04;73.07;100627.41;131050;1251;107433;-74
2023/03/16 06:41:37;;;;;;;33.00;17.50;;;;;;;1.15;72.90;100632.39;131065;1254;107455;-75
2023/03/16 06:44:43;;;;;;;34.70;17.90;;;;;;;1.25;72.91;100635.55;131205;1254;107582;-74
2023/03/16 06:47:50;;;;;;;37.50;17.70;;;;;;;1.32;73.04;100639.22;131059;1254;107446;-74
2023/03/16 06:50:57;;;;;;;29.40;15.40;;;;;;;1.40;73.13;100645.25;131297;1251;107385;-73
2023/03/16 06:54:05;;;;;;;31.20;15.80;;;;;;;1.46;72.93;100649.14;131403;1251;107401;-73
2023/03/16 06:57:12;;;;;;;48.10;23.50;;;;;;;1.50;73.02;100646.60;131225;1251;107387;-73
2023/03/16 07:00:20;;;;;;;36.80;18.00;;;;;;;1.56;73.04;100644.90;131221;1257;107375;-75
2023/03/16 07:03:26;;;;;;;26.70;15.10;;;;;;;1.62;73.06;100645.65;131286;1251;107577;-74
2023/03/16 07:06:53;;;;;;;35.40;16.40;;;;;;;1.69;73.22;100647.88;131205;1254;109030;-73
2023/03/16 07:10:00;;;;;;;333.10;103.20;;;;;;;1.72;73.09;100645.95;131018;1251;108379;-73
2023/03/16 07:13:07;;;;;;;657.70;232.90;;;;;;;1.78;73.18;100648.93;131241;1252;107777;-76
2023/03/16 07:16:13;;;;;;;275.20;76.60;;;;;;;1.87;73.07;100650.36;131057;1263;108454;-73
2023/03/16 07:19:21;;;;;;;144.90;43.80;;;;;;;1.93;73.14;100654.89;131210;1253;108298;-73
2023/03/16 07:22:28;;;;;;;162.00;55.50;;;;;;;2.03;73.13;100656.77;131245;1254;107194;-73
2023/03/16 07:25:35;;;;;;;180.70;72.20;;;;;;;2.17;73.08;100656.91;131236;1251;108474;-75
2023/03/16 07:28:43;;;;;;;125.10;57.00;;;;;;;2.28;73.09;100657.80;131266;1252;108619;-75
2023/03/16 07:31:52;;;;;;;116.90;55.30;;;;;;;2.41;73.00;100650.73;131439;1253;107253;-74
2023/03/16 07:35:02;;;;;;;70.60;36.70;;;;;;;2.50;73.05;100657.20;131267;1253;108462;-73
2023/03/16 07:38:11;;;;;;;43.80;22.50;;;;;;;2.57;72.92;100653.97;131121;1249;107496;-75
2023/03/16 07:41:17;;;;;;;52.80;31.10;;;;;;;2.57;72.80;100658.58;131208;1249;108489;-74
2023/03/16 07:44:24;;;;;;;34.50;19.80;;;;;;;2.61;72.98;100663.95;131119;1254;108444;-75
2023/03/16 07:47:32;;;;;;;34.00;20.70;;;;;;;2.70;73.05;100662.84;131093;1254;108522;-74
2023/03/16 07:50:42;;;;;;;19.80;11.50;;;;;;;2.78;72.83;100658.52;131069;1253;107773;-74
2023/03/16 07:53:50;;;;;;;21.90;11.70;;;;;;;2.78;72.91;100658.85;131018;1253;108536;-74
2023/03/16 07:57:07;;;;;;;21.40;11.20;;;;;;;2.81;72.88;100661.36;131100;1254;108182;-75
2023/03/16 08:00:24;;;;;;;16.90;9.70;;;;;;;2.83;72.81;100658.90;131130;1254;108542;-75
2023/03/16 08:03:31;;;;;;;20.70;12.90;;;;;;;2.86;73.03;100658.21;131083;1256;107447;-74
2023/03/16 08:06:38;;;;;;;21.20;10.20;;;;;;;2.93;72.98;100661.10;131141;1253;108500;-77
2023/03/16 08:09:45;;;;;;;22.00;11.80;;;;;;;3.02;73.13;100660.94;131098;1250;108445;-74
2023/03/16 08:12:54;;;;;;;20.20;10.40;;;;;;;3.17;73.12;100668.10;131036;1254;108324;-74
2023/03/16 08:16:04;;;;;;;23.10;12.20;;;;;;;3.32;73.06;100669.60;131134;1264;107789;-75
2023/03/16 08:19:19;;;;;;;186.30;77.70;;;;;;;3.49;72.66;100670.13;131134;1250;107074;-75
2023/03/16 08:22:27;;;;;;;67.10;28.10;;;;;;;3.62;72.52;100673.70;131320;1264;109040;-74
2023/03/16 08:25:34;;;;;;;51.70;25.50;;;;;;;3.73;72.51;100673.88;131061;1254;108392;-75
2023/03/16 08:28:53;;;;;;;81.20;40.70;;;;;;;3.80;72.33;100674.63;131267;1250;108083;-73
2023/03/16 08:32:00;;;;;;;30.10;15.70;;;;;;;3.85;72.39;100676.41;131270;1251;108393;-77
2023/03/16 08:35:16;;;;;;;28.00;14.60;;;;;;;3.93;72.14;100673.26;131189;1249;108071;-74
2023/03/16 08:38:24;;;;;;;23.30;12.10;;;;;;;4.01;71.89;100677.48;131270;1252;107497;-74
2023/03/16 08:41:39;;;;;;;21.10;10.40;;;;;;;4.04;71.69;100678.20;131355;1251;108524;-75
2023/03/16 08:44:48;;;;;;;32.70;14.90;;;;;;;4.00;71.57;100678.15;131373;1252;107872;-75
2023/03/16 08:47:54;;;;;;;17.90;9.50;;;;;;;4.07;71.88;100680.80;131043;1254;108452;-76
2023/03/16 08:51:05;;;;;;;17.30;7.90;;;;;;;4.16;71.06;100681.66;130998;1253;108627;-76
2023/03/16 08:54:11;;;;;;;18.40;9.20;;;;;;;4.22;71.28;100681.73;131277;1254;108219;-76
2023/03/16 08:57:18;;;;;;;14.20;8.10;;;;;;;4.28;71.11;100685.39;131327;1251;107370;-75
2023/03/16 09:00:25;;;;;;;10.20;5.70;;;;;;;4.25;70.03;100684.92;131188;1252;107584;-76
2023/03/16 09:03:34;;;;;;;12.40;7.40;;;;;;;4.19;69.90;100690.26;131221;1250;107552;-75
2023/03/16 09:06:44;;;;;;;15.10;8.70;;;;;;;4.23;69.77;100692.77;131369;1254;108542;-73
2023/03/16 09:09:51;;;;;;;15.70;8.10;;;;;;;4.19;69.87;100691.51;131313;1251;108153;-75
2023/03/16 09:12:58;;;;;;;14.40;8.00;;;;;;;4.26;70.56;100690.31;131192;1253;108480;-76
2023/03/16 09:16:05;;;;;;;11.90;7.10;;;;;;;4.39;70.70;100684.86;131068;1251;108566;-77
2023/03/16 09:19:12;;;;;;;10.90;6.40;;;;;;;4.52;69.35;100687.89;131090;1252;107265;-77
2023/03/16 09:22:23;;;;;;;10.20;5.80;;;;;;;4.53;68.67;100688.29;131148;1254;108177;-76
2023/03/16 09:25:32;;;;;;;11.40;5.10;;;;;;;4.57;69.76;100683.98;131181;1252;106781;-76
2023/03/16 09:28:40;;;;;;;12.10;4.90;;;;;;;4.67;68.92;100688.58;131150;1254;108030;-74
2023/03/16 09:31:47;;;;;;;10.70;4.20;;;;;;;4.75;69.15;100686.13;131266;1252;108407;-75
2023/03/16 09:34:54;;;;;;;11.00;4.90;;;;;;;4.79;68.66;100687.84;131195;1253;108512;-76
2023/03/16 09:38:00;;;;;;;11.60;4.20;;;;;;;4.83;68.66;100688.59;131527;1262;108430;-76
2023/03/16 09:41:09;;;;;;;11.00;3.40;;;;;;;4.86;66.86;100689.42;131393;1249;108689;-76
2023/03/16 09:44:32;;;;;;;7.50;3.90;;;;;;;4.82;65.04;100691.15;131110;1251;108568;-77
2023/03/16 09:47:43;;;;;;;9.90;4.00;;;;;;;4.94;66.25;100685.73;131202;1253;106893;-76
2023/03/16 09:50:51;;;;;;;8.80;4.10;;;;;;;5.00;64.31;100689.18;131123;1251;108680;-76
2023/03/16 09:54:02;;;;;;;11.30;5.10;;;;;;;5.01;64.30;100688.61;131084;1252;108504;-76
2023/03/16 09:57:22;;;;;;;11.20;4.80;;;;;;;5.03;65.66;100687.23;131219;1251;107856;-75
2023/03/16 10:00:34;;;;;;;13.20;6.50;;;;;;;5.19;65.80;100691.05;131173;1254;107816;-77
2023/03/16 10:04:00;;;;;;;7.90;4.20;;;;;;;5.32;65.00;100690.45;131043;1253;106421;-77
2023/03/16 10:07:20;;;;;;;7.60;3.70;;;;;;;5.44;65.46;100699.11;131149;1250;108949;-76
2023/03/16 10:10:41;;;;;;;8.80;3.90;;;;;;;5.58;66.44;100697.48;131100;1249;107617;-76
2023/03/16 10:13:55;;;;;;;9.00;4.50;;;;;;;5.72;65.66;100700.14;131129;1251;108451;-76
2023/03/16 10:17:07;;;;;;;11.00;4.10;;;;;;;5.86;66.01;100697.88;131188;1252;107518;-76
2023/03/16 10:20:17;;;;;;;7.80;3.60;;;;;;;6.08;63.44;100700.06;131238;1252;107483;-76
2023/03/16 10:23:24;;;;;;;7.30;3.50;;;;;;;6.23;63.25;100699.64;131314;1250;107494;-76
2023/03/16 10:26:40;;;;;;;8.30;3.20;;;;;;;6.28;63.67;100701.02;131208;1252;108670;-76
2023/03/16 10:29:47;;;;;;;10.00;3.70;;;;;;;6.35;63.54;100703.52;131055;1253;107604;-76
2023/03/16 10:32:54;;;;;;;10.30;3.90;;;;;;;6.41;63.97;100705.86;131159;1254;109017;-76
2023/03/16 10:36:12;;;;;;;11.70;4.20;;;;;;;6.41;62.88;100708.17;131014;1250;108461;-78
2023/03/16 10:39:19;;;;;;;9.80;4.50;;;;;;;6.37;62.30;100703.02;131402;1251;108451;-74
2023/03/16 10:42:27;;;;;;;8.80;3.70;;;;;;;6.34;59.10;100703.25;131345;1253;106534;-77
2023/03/16 10:45:36;;;;;;;9.50;4.10;;;;;;;6.53;62.56;100699.13;131100;1252;108462;-76
2023/03/16 10:48:58;;;;;;;11.10;3.80;;;;;;;6.81;60.40;100696.90;131052;1252;108447;-76
2023/03/16 10:52:15;;;;;;;10.60;3.90;;;;;;;6.92;59.79;100698.16;131097;1261;108502;-76
2023/03/16 10:55:27;;;;;;;10.70;4.40;;;;;;;7.23;61.88;100699.84;131177;1254;108082;-76
2023/03/16 10:58:41;;;;;;;10.70;3.70;;;;;;;7.62;62.26;100695.29;131134;1252;108169;-75
2023/03/16 11:01:49;;;;;;;7.90;3.40;;;;;;;7.80;61.35;100698.43;131205;1249;108227;-76
2023/03/16 11:04:56;;;;;;;8.60;3.30;;;;;;;7.93;60.13;100694.79;131103;1252;107954;-74
2023/03/16 11:08:13;;;;;;;9.10;3.30;;;;;;;7.89;57.06;100709.94;131262;1252;108512;-77
2023/03/16 11:11:26;;;;;;;8.70;4.00;;;;;;;7.66;56.46;100704.39;131149;1252;108531;-77
2023/03/16 11:14:36;;;;;;;9.30;3.50;;;;;;;7.63;57.06;100712.39;131189;1253;108382;-76
2023/03/16 11:17:45;;;;;;;11.00;5.00;;;;;;;7.48;58.60;100714.42;131393;1252;108783;-76
2023/03/16 11:20:53;;;;;;;13.10;3.60;;;;;;;7.36;58.42;100711.37;131315;1260;107567;-76
2023/03/16 11:24:03;;;;;;;9.40;2.80;;;;;;;7.02;54.30;100720.52;131088;1250;108159;-77
2023/03/16 11:27:20;;;;;;;9.60;3.10;;;;;;;6.72;55.19;100721.39;131085;1250;108323;-77
2023/03/16 11:30:30;;;;;;;10.60;5.50;;;;;;;6.69;58.04;100715.95;131410;1250;108030;-76
2023/03/16 11:33:37;;;;;;;13.30;4.10;;;;;;;7.03;58.54;100707.02;131371;1251;108568;-74
2023/03/16 11:36:52;;;;;;;11.50;3.90;;;;;;;7.33;55.54;100708.78;131303;1252;107348;-76
2023/03/16 11:40:13;;;;;;;8.90;3.30;;;;;;;7.39;56.22;100704.73;131311;1250;108221;-75
2023/03/16 11:43:37;;;;;;;9.60;3.30;;;;;;;7.32;55.14;100716.10;131348;1252;109208;-75
2023/03/16 11:46:55;;;;;;;8.70;2.80;;;;;;;7.33;56.91;100714.23;131553;1251;108789;-77
2023/03/16 11:50:14;;;;;;;8.80;2.80;;;;;;;7.50;55.56;100709.52;131116;1252;107793;-77
2023/03/16 11:53:37;;;;;;;10.00;5.30;;;;;;;7.54;55.39;100710.11;131070;1252;108490;-78
2023/03/16 11:56:52;;;;;;;12.20;7.50;;;;;;;7.61;54.77;100710.63;131162;1252;107525;-76
2023/03/16 12:00:20;;;;;;;8.10;4.00;;;;;;;7.72;53.72;100704.63;131060;1254;108720;-75
2023/03/16 12:03:45;;;;;;;9.80;4.80;;;;;;;7.79;51.92;100706.71;131027;1252;108605;-76
2023/03/16 12:07:11;;;;;;;25.60;13.90;;;;;;;7.84;52.86;100708.08;131112;1251;108570;-76
2023/03/16 12:10:25;;;;;;;12.10;6.50;;;;;;;7.80;53.17;100709.74;131180;1253;107271;-76
2023/03/16 12:13:41;;;;;;;19.50;8.70;;;;;;;7.71;52.73;100708.73;131300;1252;108130;-74
2023/03/16 12:16:54;;;;;;;15.20;6.30;;;;;;;7.81;54.24;100701.95;131304;1250;108340;-76
2023/03/16 12:20:10;;;;;;;17.40;7.40;;;;;;;8.00;53.82;100697.69;131084;1252;108600;-77
2023/03/16 12:23:25;;;;;;;8.60;3.30;;;;;;;8.03;51.68;100708.48;131243;1252;108718;-74
2023/03/16 12:26:42;;;;;;;6.10;2.70;;;;;;;7.60;50.35;100712.99;131196;1252;108662;-76
2023/03/16 12:30:19;;;;;;;14.40;5.70;;;;;;;7.27;52.53;100709.73;131100;1252;108549;-77
2023/03/16 12:33:37;;;;;;;9.80;4.50;;;;;;;7.20;53.33;100711.37;131210;1252;108775;-76
2023/03/16 12:37:13;;;;;;;7.90;2.50;;;;;;;7.16;53.20;100713.94;131031;1252;108540;-76
2023/03/16 12:40:39;;;;;;;5.90;2.90;;;;;;;6.86;51.17;100712.59;131058;1252;106720;-76
2023/03/16 12:44:06;;;;;;;7.70;3.60;;;;;;;6.71;53.92;100709.32;131259;1251;108531;-76
2023/03/16 12:47:27;;;;;;;5.50;2.50;;;;;;;6.77;53.40;100713.23;131170;1251;107160;-75
2023/03/16 12:50:33;;;;;;;5.40;2.00;;;;;;;6.66;52.39;100718.11;131388;1251;108107;-76
2023/03/16 12:53:46;;;;;;;5.10;1.50;;;;;;;6.53;52.61;100719.35;131235;1252;108536;-76
2023/03/16 12:57:03;;;;;;;5.20;1.70;;;;;;;6.42;52.54;100715.04;131234;1250;108379;-76
2023/03/16 13:00:13;;;;;;;5.60;2.10;;;;;;;6.35;52.44;100719.59;131116;1250;108260;-76
2023/03/16 13:03:25;;;;;;;4.90;2.10;;;;;;;6.45;52.77;100715.70;131079;1252;108654;-79
2023/03/16 13:06:36;;;;;;;4.80;2.10;;;;;;;6.63;53.11;100712.55;131017;1249;107636;-77
2023/03/16 13:09:48;;;;;;;7.30;3.60;;;;;;;6.83;52.19;100709.64;131262;1252;108302;-75
2023/03/16 13:13:15;;;;;;;6.80;2.20;;;;;;;7.03;52.87;100711.21;131349;1252;109814;-75
2023/03/16 13:16:29;;;;;;;19.30;6.80;;;;;;;7.23;52.01;100709.39;131062;1250;108383;-76
2023/03/16 13:19:39;;;;;;;5.80;2.10;;;;;;;7.19;51.98;100702.27;131227;1255;109112;-77
2023/03/16 13:22:49;;;;;;;6.80;2.60;;;;;;;7.14;52.63;100707.23;131166;1252;108828;-76
2023/03/16 13:26:15;;;;;;;7.00;2.40;;;;;;;7.13;53.27;100708.72;131088;1250;108526;-77
2023/03/16 13:29:33;;;;;;;5.30;2.40;;;;;;;7.06;52.82;100708.39;131071;1252;107499;-76
2023/03/16 13:32:40;;;;;;;8.30;3.40;;;;;;;6.94;52.39;100711.96;131064;1252;108645;-76
2023/03/16 13:35:47;;;;;;;7.60;2.50;;;;;;;6.86;52.11;100716.80;131078;1252;108592;-76
2023/03/16 13:39:06;;;;;;;7.30;2.20;;;;;;;6.73;52.26;100721.55;131250;1264;107484;-76
2023/03/16 13:42:20;;;;;;;8.90;2.30;;;;;;;6.64;52.36;100719.71;131131;1252;107724;-76
2023/03/16 13:45:32;;;;;;;5.40;2.90;;;;;;;6.72;51.94;100722.34;131161;1252;108962;-76
2023/03/16 13:48:40;;;;;;;7.60;2.70;;;;;;;6.80;51.90;100713.37;131246;1253;108495;-76
2023/03/16 13:51:49;;;;;;;6.90;2.60;;;;;;;6.92;51.56;100710.21;131080;1252;108594;-76
2023/03/16 13:54:58;;;;;;;8.80;2.90;;;;;;;6.93;52.09;100715.20;131059;1252;108733;-76
2023/03/16 13:58:07;;;;;;;6.40;3.20;;;;;;;6.75;52.14;100721.25;131134;1252;108719;-77
2023/03/16 14:01:23;;;;;;;8.30;4.40;;;;;;;6.64;53.18;100723.80;131073;1250;108301;-77
2023/03/16 14:04:30;;;;;;;7.50;3.80;;;;;;;6.73;53.19;100719.94;131089;1252;107488;-77
2023/03/16 14:07:39;;;;;;;5.60;3.10;;;;;;;6.96;53.04;100714.48;131407;1249;107530;-76
2023/03/16 14:10:46;;;;;;;9.50;3.80;;;;;;;7.07;51.65;100724.92;131244;1250;107250;-77
2023/03/16 14:13:56;;;;;;;11.20;4.60;;;;;;;6.94;52.82;100730.15;131325;1250;106299;-75
2023/03/16 14:17:12;;;;;;;7.90;4.60;;;;;;;6.81;53.44;100740.52;131238;1253;142644;-76